sensor_id;sensor_type;location;lat;lon;timestamp;P1;durP1;ratioP1;P2;durP2;ratioP2
56267;SDS011;42175;46.930;9.532;2023-04-09T00:01:04;3.85;;;2.83;;
56267;SDS011;42175;46.930;9.532;2023-04-09T00:03:34;4.22;;;2.90;;
56267;SDS011;42175;46.930;9.532;2023-04-09T00:06:01;3.28;;;2.50;;
56267;SDS011;42175;46.930;9.532;2023-04-09T00:08:27;6.68;;;3.10;;
56267;SDS011;42175;46.930;9.532;2023-04-09T00:10:52;4.03;;;2.78;;
56267;SDS011;42175;46.930;9.532;2023-04-09T00:13:19;5.75;;;2.70;;
56267;SDS011;42175;46.930;9.532;2023-04-09T00:15:45;3.25;;;2.58;;
56267;SDS011;42175;46.930;9.532;2023-04-09T00:18:11;7.35;;;2.80;;
56267;SDS011;42175;46.930;9.532;2023-04-09T00:20:37;4.95;;;2.95;;
56267;SDS011;42175;46.930;9.532;2023-04-09T00:23:03;4.32;;;2.90;;
56267;SDS011;42175;46.930;9.532;2023-04-09T00:25:29;4.22;;;2.85;;
56267;SDS011;42175;46.930;9.532;2023-04-09T00:27:55;4.22;;;3.05;;
56267;SDS011;42175;46.930;9.532;2023-04-09T00:30:21;3.90;;;3.28;;
56267;SDS011;42175;46.930;9.532;2023-04-09T00:32:47;3.47;;;2.75;;
56267;SDS011;42175;46.930;9.532;2023-04-09T00:35:13;5.70;;;3.40;;
56267;SDS011;42175;46.930;9.532;2023-04-09T00:37:41;3.38;;;3.00;;
56267;SDS011;42175;46.930;9.532;2023-04-09T00:40:07;5.90;;;3.33;;
56267;SDS011;42175;46.930;9.532;2023-04-09T00:42:34;6.65;;;3.47;;
56267;SDS011;42175;46.930;9.532;2023-04-09T00:45:01;5.43;;;2.90;;
56267;SDS011;42175;46.930;9.532;2023-04-09T00:47:28;3.40;;;3.03;;
56267;SDS011;42175;46.930;9.532;2023-04-09T00:49:55;3.13;;;2.83;;
56267;SDS011;42175;46.930;9.532;2023-04-09T00:52:21;3.80;;;3.03;;
56267;SDS011;42175;46.930;9.532;2023-04-09T00:54:48;3.55;;;2.50;;
56267;SDS011;42175;46.930;9.532;2023-04-09T00:57:16;6.80;;;3.25;;
56267;SDS011;42175;46.930;9.532;2023-04-09T00:59:43;3.97;;;2.85;;
56267;SDS011;42175;46.930;9.532;2023-04-09T01:02:09;3.97;;;2.60;;
56267;SDS011;42175;46.930;9.532;2023-04-09T01:04:35;4.35;;;3.08;;
56267;SDS011;42175;46.930;9.532;2023-04-09T01:07:08;5.22;;;3.35;;
56267;SDS011;42175;46.930;9.532;2023-04-09T01:09:53;4.13;;;3.08;;
56267;SDS011;42175;46.930;9.532;2023-04-09T01:12:35;3.35;;;2.85;;
56267;SDS011;42175;46.930;9.532;2023-04-09T01:15:12;4.80;;;3.10;;
56267;SDS011;42175;46.930;9.532;2023-04-09T01:20:41;7.15;;;3.28;;
56267;SDS011;42175;46.930;9.532;2023-04-09T01:28:46;3.65;;;2.80;;
56267;SDS011;42175;46.930;9.532;2023-04-09T01:31:17;4.13;;;3.15;;
56267;SDS011;42175;46.930;9.532;2023-04-09T01:33:44;4.10;;;3.00;;
56267;SDS011;42175;46.930;9.532;2023-04-09T01:36:11;4.22;;;2.97;;
56267;SDS011;42175;46.930;9.532;2023-04-09T01:38:38;3.72;;;2.97;;
56267;SDS011;42175;46.930;9.532;2023-04-09T01:41:06;6.40;;;2.85;;
56267;SDS011;42175;46.930;9.532;2023-04-09T01:43:36;3.92;;;3.35;;
56267;SDS011;42175;46.930;9.532;2023-04-09T01:46:02;4.28;;;3.15;;
56267;SDS011;42175;46.930;9.532;2023-04-09T01:48:29;4.35;;;3.38;;
56267;SDS011;42175;46.930;9.532;2023-04-09T01:50:57;4.55;;;3.28;;
56267;SDS011;42175;46.930;9.532;2023-04-09T01:53:23;3.42;;;3.10;;
56267;SDS011;42175;46.930;9.532;2023-04-09T01:55:53;4.05;;;3.15;;
56267;SDS011;42175;46.930;9.532;2023-04-09T01:58:20;5.65;;;3.67;;
56267;SDS011;42175;46.930;9.532;2023-04-09T02:00:48;4.68;;;3.22;;
56267;SDS011;42175;46.930;9.532;2023-04-09T02:03:17;3.92;;;2.80;;
56267;SDS011;42175;46.930;9.532;2023-04-09T02:05:50;4.32;;;3.38;;
56267;SDS011;42175;46.930;9.532;2023-04-09T02:08:21;4.65;;;3.40;;
56267;SDS011;42175;46.930;9.532;2023-04-09T02:10:53;3.92;;;3.08;;
56267;SDS011;42175;46.930;9.532;2023-04-09T02:13:22;4.32;;;3.40;;
56267;SDS011;42175;46.930;9.532;2023-04-09T02:15:49;3.58;;;3.28;;
56267;SDS011;42175;46.930;9.532;2023-04-09T02:18:20;3.60;;;3.25;;
56267;SDS011;42175;46.930;9.532;2023-04-09T02:20:46;6.32;;;3.00;;
56267;SDS011;42175;46.930;9.532;2023-04-09T02:23:14;3.38;;;3.08;;
56267;SDS011;42175;46.930;9.532;2023-04-09T02:25:42;3.95;;;2.90;;
56267;SDS011;42175;46.930;9.532;2023-04-09T02:28:08;5.85;;;3.35;;
56267;SDS011;42175;46.930;9.532;2023-04-09T02:30:33;5.63;;;3.30;;
56267;SDS011;42175;46.930;9.532;2023-04-09T02:32:59;5.05;;;2.88;;
56267;SDS011;42175;46.930;9.532;2023-04-09T02:35:25;3.60;;;3.20;;
56267;SDS011;42175;46.930;9.532;2023-04-09T02:37:50;7.28;;;3.35;;
56267;SDS011;42175;46.930;9.532;2023-04-09T02:40:16;3.42;;;3.03;;
56267;SDS011;42175;46.930;9.532;2023-04-09T02:42:42;3.25;;;2.95;;
56267;SDS011;42175;46.930;9.532;2023-04-09T02:45:07;5.32;;;3.22;;
56267;SDS011;42175;46.930;9.532;2023-04-09T02:47:33;4.38;;;2.95;;
56267;SDS011;42175;46.930;9.532;2023-04-09T02:49:59;4.45;;;3.25;;
56267;SDS011;42175;46.930;9.532;2023-04-09T02:52:25;5.40;;;3.97;;
56267;SDS011;42175;46.930;9.532;2023-04-09T02:54:51;3.53;;;3.10;;
56267;SDS011;42175;46.930;9.532;2023-04-09T02:57:17;3.70;;;3.10;;
56267;SDS011;42175;46.930;9.532;2023-04-09T02:59:43;4.35;;;3.20;;
56267;SDS011;42175;46.930;9.532;2023-04-09T03:02:09;6.18;;;3.40;;
56267;SDS011;42175;46.930;9.532;2023-04-09T03:04:35;4.00;;;3.15;;
56267;SDS011;42175;46.930;9.532;2023-04-09T03:07:01;3.53;;;3.22;;
56267;SDS011;42175;46.930;9.532;2023-04-09T03:09:26;4.47;;;3.45;;
56267;SDS011;42175;46.930;9.532;2023-04-09T03:11:53;5.03;;;3.55;;
56267;SDS011;42175;46.930;9.532;2023-04-09T03:14:20;4.25;;;3.20;;
56267;SDS011;42175;46.930;9.532;2023-04-09T03:16:45;4.53;;;2.90;;
56267;SDS011;42175;46.930;9.532;2023-04-09T03:19:11;4.72;;;3.60;;
56267;SDS011;42175;46.930;9.532;2023-04-09T03:21:37;4.10;;;3.65;;
56267;SDS011;42175;46.930;9.532;2023-04-09T03:24:02;3.90;;;3.38;;
56267;SDS011;42175;46.930;9.532;2023-04-09T03:26:28;4.95;;;3.33;;
56267;SDS011;42175;46.930;9.532;2023-04-09T03:29:00;6.32;;;3.88;;
56267;SDS011;42175;46.930;9.532;2023-04-09T03:31:26;8.50;;;3.60;;
56267;SDS011;42175;46.930;9.532;2023-04-09T03:33:52;5.05;;;3.55;;
56267;SDS011;42175;46.930;9.532;2023-04-09T03:36:17;3.67;;;2.97;;
56267;SDS011;42175;46.930;9.532;2023-04-09T03:38:43;5.90;;;2.92;;
56267;SDS011;42175;46.930;9.532;2023-04-09T03:41:08;4.32;;;3.13;;
56267;SDS011;42175;46.930;9.532;2023-04-09T03:43:34;5.45;;;3.30;;
56267;SDS011;42175;46.930;9.532;2023-04-09T03:46:00;3.95;;;3.45;;
56267;SDS011;42175;46.930;9.532;2023-04-09T03:48:26;4.40;;;3.20;;
56267;SDS011;42175;46.930;9.532;2023-04-09T03:50:51;3.55;;;3.03;;
56267;SDS011;42175;46.930;9.532;2023-04-09T03:53:17;4.40;;;3.50;;
56267;SDS011;42175;46.930;9.532;2023-04-09T03:55:43;5.45;;;3.13;;
56267;SDS011;42175;46.930;9.532;2023-04-09T03:58:09;3.40;;;3.10;;
56267;SDS011;42175;46.930;9.532;2023-04-09T04:00:35;6.10;;;3.70;;
56267;SDS011;42175;46.930;9.532;2023-04-09T04:03:01;3.60;;;3.05;;
56267;SDS011;42175;46.930;9.532;2023-04-09T04:05:26;3.92;;;3.00;;
56267;SDS011;42175;46.930;9.532;2023-04-09T04:07:52;4.03;;;3.53;;
56267;SDS011;42175;46.930;9.532;2023-04-09T04:10:18;12.40;;;2.85;;
56267;SDS011;42175;46.930;9.532;2023-04-09T04:12:44;16.13;;;3.60;;
56267;SDS011;42175;46.930;9.532;2023-04-09T04:15:09;13.70;;;3.47;;
56267;SDS011;42175;46.930;9.532;2023-04-09T04:17:35;5.47;;;3.42;;
56267;SDS011;42175;46.930;9.532;2023-04-09T04:20:01;5.25;;;3.33;;
56267;SDS011;42175;46.930;9.532;2023-04-09T04:22:28;4.53;;;3.75;;
56267;SDS011;42175;46.930;9.532;2023-04-09T04:24:53;4.32;;;3.83;;
56267;SDS011;42175;46.930;9.532;2023-04-09T04:27:19;5.38;;;4.03;;
56267;SDS011;42175;46.930;9.532;2023-04-09T04:29:44;3.53;;;3.20;;
56267;SDS011;42175;46.930;9.532;2023-04-09T04:32:10;6.18;;;3.33;;
56267;SDS011;42175;46.930;9.532;2023-04-09T04:34:36;5.35;;;3.70;;
56267;SDS011;42175;46.930;9.532;2023-04-09T04:37:01;5.57;;;4.07;;
56267;SDS011;42175;46.930;9.532;2023-04-09T04:39:29;6.90;;;3.80;;
56267;SDS011;42175;46.930;9.532;2023-04-09T04:41:55;3.75;;;3.28;;
56267;SDS011;42175;46.930;9.532;2023-04-09T04:44:20;4.57;;;3.78;;
56267;SDS011;42175;46.930;9.532;2023-04-09T04:46:46;4.43;;;3.25;;
56267;SDS011;42175;46.930;9.532;2023-04-09T04:49:12;4.50;;;3.63;;
56267;SDS011;42175;46.930;9.532;2023-04-09T04:51:37;4.22;;;3.50;;
56267;SDS011;42175;46.930;9.532;2023-04-09T04:54:03;5.55;;;3.70;;
56267;SDS011;42175;46.930;9.532;2023-04-09T04:56:29;4.80;;;3.97;;
56267;SDS011;42175;46.930;9.532;2023-04-09T04:58:54;4.05;;;3.65;;
56267;SDS011;42175;46.930;9.532;2023-04-09T05:01:20;5.43;;;3.90;;
56267;SDS011;42175;46.930;9.532;2023-04-09T05:03:46;4.95;;;3.85;;
56267;SDS011;42175;46.930;9.532;2023-04-09T05:06:12;6.95;;;4.60;;
56267;SDS011;42175;46.930;9.532;2023-04-09T05:08:37;5.95;;;3.88;;
56267;SDS011;42175;46.930;9.532;2023-04-09T05:11:03;4.95;;;4.38;;
56267;SDS011;42175;46.930;9.532;2023-04-09T05:13:28;4.57;;;4.03;;
56267;SDS011;42175;46.930;9.532;2023-04-09T05:15:54;4.85;;;4.10;;
56267;SDS011;42175;46.930;9.532;2023-04-09T05:18:20;4.40;;;3.70;;
56267;SDS011;42175;46.930;9.532;2023-04-09T05:20:46;4.38;;;3.97;;
56267;SDS011;42175;46.930;9.532;2023-04-09T05:23:11;5.35;;;4.00;;
56267;SDS011;42175;46.930;9.532;2023-04-09T05:25:38;4.65;;;3.80;;
56267;SDS011;42175;46.930;9.532;2023-04-09T05:28:03;6.43;;;4.30;;
56267;SDS011;42175;46.930;9.532;2023-04-09T05:30:29;5.63;;;3.88;;
56267;SDS011;42175;46.930;9.532;2023-04-09T05:32:55;5.45;;;3.72;;
56267;SDS011;42175;46.930;9.532;2023-04-09T05:35:20;8.68;;;3.80;;
56267;SDS011;42175;46.930;9.532;2023-04-09T05:37:46;4.10;;;3.47;;
56267;SDS011;42175;46.930;9.532;2023-04-09T05:40:13;5.43;;;3.95;;
56267;SDS011;42175;46.930;9.532;2023-04-09T05:42:39;5.10;;;4.22;;
56267;SDS011;42175;46.930;9.532;2023-04-09T05:45:05;4.43;;;3.70;;
56267;SDS011;42175;46.930;9.532;2023-04-09T05:47:31;6.22;;;4.20;;
56267;SDS011;42175;46.930;9.532;2023-04-09T05:49:56;5.82;;;4.00;;
56267;SDS011;42175;46.930;9.532;2023-04-09T05:52:22;5.38;;;4.00;;
56267;SDS011;42175;46.930;9.532;2023-04-09T05:54:48;7.93;;;4.20;;
56267;SDS011;42175;46.930;9.532;2023-04-09T05:57:13;6.03;;;3.95;;
56267;SDS011;42175;46.930;9.532;2023-04-09T05:59:39;6.72;;;4.70;;
56267;SDS011;42175;46.930;9.532;2023-04-09T06:02:05;6.15;;;4.50;;
56267;SDS011;42175;46.930;9.532;2023-04-09T06:04:30;7.13;;;4.40;;
56267;SDS011;42175;46.930;9.532;2023-04-09T06:06:56;5.95;;;4.65;;
56267;SDS011;42175;46.930;9.532;2023-04-09T06:09:24;8.43;;;4.63;;
56267;SDS011;42175;46.930;9.532;2023-04-09T06:11:51;6.43;;;4.00;;
56267;SDS011;42175;46.930;9.532;2023-04-09T06:14:16;7.53;;;4.30;;
56267;SDS011;42175;46.930;9.532;2023-04-09T06:16:42;10.20;;;4.35;;
56267;SDS011;42175;46.930;9.532;2023-04-09T06:19:08;6.75;;;4.25;;
56267;SDS011;42175;46.930;9.532;2023-04-09T06:21:33;10.20;;;4.30;;
56267;SDS011;42175;46.930;9.532;2023-04-09T06:23:59;4.57;;;3.80;;
56267;SDS011;42175;46.930;9.532;2023-04-09T06:26:25;5.22;;;2.75;;
56267;SDS011;42175;46.930;9.532;2023-04-09T06:28:51;8.20;;;3.92;;
56267;SDS011;42175;46.930;9.532;2023-04-09T06:31:16;5.13;;;3.83;;
56267;SDS011;42175;46.930;9.532;2023-04-09T06:33:42;4.63;;;4.13;;
56267;SDS011;42175;46.930;9.532;2023-04-09T06:36:07;6.07;;;2.88;;
56267;SDS011;42175;46.930;9.532;2023-04-09T06:38:33;12.60;;;3.40;;
56267;SDS011;42175;46.930;9.532;2023-04-09T06:40:59;11.27;;;3.35;;
56267;SDS011;42175;46.930;9.532;2023-04-09T06:43:25;11.73;;;3.40;;
56267;SDS011;42175;46.930;9.532;2023-04-09T06:45:50;9.60;;;3.53;;
56267;SDS011;42175;46.930;9.532;2023-04-09T06:48:16;10.75;;;3.28;;
56267;SDS011;42175;46.930;9.532;2023-04-09T06:50:42;7.80;;;3.38;;
56267;SDS011;42175;46.930;9.532;2023-04-09T06:53:09;14.18;;;3.47;;
56267;SDS011;42175;46.930;9.532;2023-04-09T06:55:34;10.55;;;3.90;;
56267;SDS011;42175;46.930;9.532;2023-04-09T06:58:01;27.65;;;4.53;;
56267;SDS011;42175;46.930;9.532;2023-04-09T07:00:27;9.55;;;4.18;;
56267;SDS011;42175;46.930;9.532;2023-04-09T07:02:52;17.63;;;3.72;;
56267;SDS011;42175;46.930;9.532;2023-04-09T07:05:18;14.35;;;5.88;;
56267;SDS011;42175;46.930;9.532;2023-04-09T07:07:44;15.32;;;5.40;;
56267;SDS011;42175;46.930;9.532;2023-04-09T07:10:10;44.85;;;29.23;;
56267;SDS011;42175;46.930;9.532;2023-04-09T07:12:36;33.78;;;23.15;;
56267;SDS011;42175;46.930;9.532;2023-04-09T07:15:02;53.53;;;43.08;;
56267;SDS011;42175;46.930;9.532;2023-04-09T07:17:30;110.88;;;98.93;;
56267;SDS011;42175;46.930;9.532;2023-04-09T07:19:56;45.55;;;39.13;;
56267;SDS011;42175;46.930;9.532;2023-04-09T07:22:22;35.13;;;28.23;;
56267;SDS011;42175;46.930;9.532;2023-04-09T07:24:49;34.30;;;25.38;;
56267;SDS011;42175;46.930;9.532;2023-04-09T07:27:20;34.83;;;25.33;;
56267;SDS011;42175;46.930;9.532;2023-04-09T07:29:47;32.75;;;25.80;;
56267;SDS011;42175;46.930;9.532;2023-04-09T07:32:13;34.72;;;26.23;;
56267;SDS011;42175;46.930;9.532;2023-04-09T07:34:39;32.63;;;23.38;;
56267;SDS011;42175;46.930;9.532;2023-04-09T07:37:05;31.63;;;19.77;;
56267;SDS011;42175;46.930;9.532;2023-04-09T07:39:31;24.15;;;15.95;;
56267;SDS011;42175;46.930;9.532;2023-04-09T07:41:57;24.92;;;14.80;;
56267;SDS011;42175;46.930;9.532;2023-04-09T07:44:24;21.63;;;12.93;;
56267;SDS011;42175;46.930;9.532;2023-04-09T07:46:49;28.63;;;11.98;;
56267;SDS011;42175;46.930;9.532;2023-04-09T07:49:15;30.63;;;11.85;;
56267;SDS011;42175;46.930;9.532;2023-04-09T07:51:41;23.02;;;10.48;;
56267;SDS011;42175;46.930;9.532;2023-04-09T07:54:07;22.52;;;10.77;;
56267;SDS011;42175;46.930;9.532;2023-04-09T07:56:32;23.80;;;10.27;;
56267;SDS011;42175;46.930;9.532;2023-04-09T07:58:58;23.45;;;8.85;;
56267;SDS011;42175;46.930;9.532;2023-04-09T08:01:24;23.05;;;8.27;;
56267;SDS011;42175;46.930;9.532;2023-04-09T08:03:50;18.52;;;8.30;;
56267;SDS011;42175;46.930;9.532;2023-04-09T08:06:16;17.92;;;8.13;;
56267;SDS011;42175;46.930;9.532;2023-04-09T08:08:42;15.05;;;7.20;;
56267;SDS011;42175;46.930;9.532;2023-04-09T08:11:08;17.85;;;7.57;;
56267;SDS011;42175;46.930;9.532;2023-04-09T08:13:34;20.77;;;7.55;;
56267;SDS011;42175;46.930;9.532;2023-04-09T08:16:00;29.33;;;8.38;;
56267;SDS011;42175;46.930;9.532;2023-04-09T08:18:26;15.48;;;7.18;;
56267;SDS011;42175;46.930;9.532;2023-04-09T08:20:52;15.05;;;7.32;;
56267;SDS011;42175;46.930;9.532;2023-04-09T08:23:18;14.82;;;6.80;;
56267;SDS011;42175;46.930;9.532;2023-04-09T08:25:44;15.60;;;7.30;;
56267;SDS011;42175;46.930;9.532;2023-04-09T08:28:10;13.60;;;6.68;;
56267;SDS011;42175;46.930;9.532;2023-04-09T08:30:35;18.92;;;7.55;;
56267;SDS011;42175;46.930;9.532;2023-04-09T08:33:01;26.58;;;8.52;;
56267;SDS011;42175;46.930;9.532;2023-04-09T08:35:28;16.48;;;8.02;;
56267;SDS011;42175;46.930;9.532;2023-04-09T08:37:54;23.88;;;7.75;;
56267;SDS011;42175;46.930;9.532;2023-04-09T08:40:21;14.23;;;8.32;;
56267;SDS011;42175;46.930;9.532;2023-04-09T08:42:46;20.35;;;8.23;;
56267;SDS011;42175;46.930;9.532;2023-04-09T08:45:23;24.58;;;7.70;;
56267;SDS011;42175;46.930;9.532;2023-04-09T08:47:49;15.68;;;7.40;;
56267;SDS011;42175;46.930;9.532;2023-04-09T08:50:15;20.60;;;7.70;;
56267;SDS011;42175;46.930;9.532;2023-04-09T08:52:41;17.65;;;7.40;;
56267;SDS011;42175;46.930;9.532;2023-04-09T08:55:09;22.50;;;7.95;;
56267;SDS011;42175;46.930;9.532;2023-04-09T08:57:37;34.05;;;9.02;;
56267;SDS011;42175;46.930;9.532;2023-04-09T09:00:03;19.80;;;7.68;;
56267;SDS011;42175;46.930;9.532;2023-04-09T09:02:29;18.08;;;6.60;;
56267;SDS011;42175;46.930;9.532;2023-04-09T09:04:55;20.63;;;7.35;;
56267;SDS011;42175;46.930;9.532;2023-04-09T09:07:24;18.48;;;7.90;;
56267;SDS011;42175;46.930;9.532;2023-04-09T09:09:54;13.52;;;7.22;;
56267;SDS011;42175;46.930;9.532;2023-04-09T09:12:39;14.00;;;6.95;;
56267;SDS011;42175;46.930;9.532;2023-04-09T09:15:49;15.48;;;6.68;;
56267;SDS011;42175;46.930;9.532;2023-04-09T09:17:56;13.30;;;6.13;;
56267;SDS011;42175;46.930;9.532;2023-04-09T09:20:24;15.18;;;6.53;;
56267;SDS011;42175;46.930;9.532;2023-04-09T09:22:51;14.48;;;5.65;;
56267;SDS011;42175;46.930;9.532;2023-04-09T09:25:18;13.93;;;6.43;;
56267;SDS011;42175;46.930;9.532;2023-04-09T09:27:50;18.63;;;6.10;;
56267;SDS011;42175;46.930;9.532;2023-04-09T09:30:23;12.35;;;5.95;;
56267;SDS011;42175;46.930;9.532;2023-04-09T09:32:50;13.65;;;6.50;;
56267;SDS011;42175;46.930;9.532;2023-04-09T09:35:52;10.68;;;5.57;;
56267;SDS011;42175;46.930;9.532;2023-04-09T09:38:19;9.45;;;5.50;;
56267;SDS011;42175;46.930;9.532;2023-04-09T09:40:45;8.57;;;5.47;;
56267;SDS011;42175;46.930;9.532;2023-04-09T09:43:11;14.20;;;6.35;;
56267;SDS011;42175;46.930;9.532;2023-04-09T09:45:38;24.38;;;5.75;;
56267;SDS011;42175;46.930;9.532;2023-04-09T09:48:04;10.50;;;5.82;;
56267;SDS011;42175;46.930;9.532;2023-04-09T09:50:30;13.95;;;5.72;;
56267;SDS011;42175;46.930;9.532;2023-04-09T09:53:05;12.65;;;5.00;;
56267;SDS011;42175;46.930;9.532;2023-04-09T09:55:31;9.65;;;5.20;;
56267;SDS011;42175;46.930;9.532;2023-04-09T09:58:00;9.38;;;5.93;;
56267;SDS011;42175;46.930;9.532;2023-04-09T10:00:27;13.70;;;5.80;;
56267;SDS011;42175;46.930;9.532;2023-04-09T10:02:56;14.15;;;5.65;;
56267;SDS011;42175;46.930;9.532;2023-04-09T10:05:26;11.02;;;5.30;;
56267;SDS011;42175;46.930;9.532;2023-04-09T10:07:53;8.63;;;4.65;;
56267;SDS011;42175;46.930;9.532;2023-04-09T10:10:21;12.43;;;5.50;;
56267;SDS011;42175;46.930;9.532;2023-04-09T10:12:48;9.32;;;5.00;;
56267;SDS011;42175;46.930;9.532;2023-04-09T10:15:15;9.00;;;4.70;;
56267;SDS011;42175;46.930;9.532;2023-04-09T10:17:41;8.07;;;4.30;;
56267;SDS011;42175;46.930;9.532;2023-04-09T10:20:09;12.80;;;5.18;;
56267;SDS011;42175;46.930;9.532;2023-04-09T10:22:38;9.30;;;4.35;;
56267;SDS011;42175;46.930;9.532;2023-04-09T10:25:04;13.65;;;5.07;;
56267;SDS011;42175;46.930;9.532;2023-04-09T10:27:31;5.85;;;4.28;;
56267;SDS011;42175;46.930;9.532;2023-04-09T10:29:56;7.72;;;4.72;;
56267;SDS011;42175;46.930;9.532;2023-04-09T10:32:24;7.03;;;3.75;;
56267;SDS011;42175;46.930;9.532;2023-04-09T10:34:52;9.48;;;4.57;;
56267;SDS011;42175;46.930;9.532;2023-04-09T10:37:22;9.30;;;4.50;;
56267;SDS011;42175;46.930;9.532;2023-04-09T10:39:49;7.82;;;4.50;;
56267;SDS011;42175;46.930;9.532;2023-04-09T10:42:20;8.52;;;3.85;;
56267;SDS011;42175;46.930;9.532;2023-04-09T10:45:06;11.45;;;4.38;;
56267;SDS011;42175;46.930;9.532;2023-04-09T10:47:32;7.75;;;3.97;;
56267;SDS011;42175;46.930;9.532;2023-04-09T10:52:52;9.88;;;4.40;;
56267;SDS011;42175;46.930;9.532;2023-04-09T10:55:39;11.10;;;4.13;;
56267;SDS011;42175;46.930;9.532;2023-04-09T10:58:07;6.45;;;3.70;;
56267;SDS011;42175;46.930;9.532;2023-04-09T11:00:38;7.03;;;4.00;;
56267;SDS011;42175;46.930;9.532;2023-04-09T11:05:39;7.43;;;4.43;;
56267;SDS011;42175;46.930;9.532;2023-04-09T11:08:08;8.55;;;4.63;;
56267;SDS011;42175;46.930;9.532;2023-04-09T11:10:35;8.23;;;4.03;;
56267;SDS011;42175;46.930;9.532;2023-04-09T11:13:06;6.43;;;3.60;;
56267;SDS011;42175;46.930;9.532;2023-04-09T11:15:36;6.53;;;3.50;;
56267;SDS011;42175;46.930;9.532;2023-04-09T11:18:02;5.47;;;3.42;;
56267;SDS011;42175;46.930;9.532;2023-04-09T11:20:31;8.38;;;3.90;;
56267;SDS011;42175;46.930;9.532;2023-04-09T11:22:58;6.60;;;3.40;;
56267;SDS011;42175;46.930;9.532;2023-04-09T11:25:28;6.22;;;3.60;;
56267;SDS011;42175;46.930;9.532;2023-04-09T11:27:55;7.85;;;4.10;;
56267;SDS011;42175;46.930;9.532;2023-04-09T11:30:21;5.63;;;3.03;;
56267;SDS011;42175;46.930;9.532;2023-04-09T11:32:47;8.65;;;3.53;;
56267;SDS011;42175;46.930;9.532;2023-04-09T11:35:14;5.07;;;2.85;;
56267;SDS011;42175;46.930;9.532;2023-04-09T11:37:42;5.82;;;2.88;;
56267;SDS011;42175;46.930;9.532;2023-04-09T11:40:17;6.60;;;3.45;;
56267;SDS011;42175;46.930;9.532;2023-04-09T11:42:53;5.10;;;2.80;;
56267;SDS011;42175;46.930;9.532;2023-04-09T11:45:20;3.92;;;3.13;;
56267;SDS011;42175;46.930;9.532;2023-04-09T11:47:48;5.32;;;3.17;;
56267;SDS011;42175;46.930;9.532;2023-04-09T11:50:15;3.45;;;2.72;;
56267;SDS011;42175;46.930;9.532;2023-04-09T11:52:41;3.95;;;3.15;;
56267;SDS011;42175;46.930;9.532;2023-04-09T11:55:08;8.43;;;3.00;;
56267;SDS011;42175;46.930;9.532;2023-04-09T12:00:14;7.30;;;3.25;;
56267;SDS011;42175;46.930;9.532;2023-04-09T12:02:41;4.07;;;2.45;;
56267;SDS011;42175;46.930;9.532;2023-04-09T12:05:09;3.42;;;2.75;;
56267;SDS011;42175;46.930;9.532;2023-04-09T12:07:36;4.57;;;2.65;;
56267;SDS011;42175;46.930;9.532;2023-04-09T12:10:03;3.50;;;2.75;;
56267;SDS011;42175;46.930;9.532;2023-04-09T12:12:30;3.72;;;2.33;;
56267;SDS011;42175;46.930;9.532;2023-04-09T12:15:08;3.33;;;2.90;;
56267;SDS011;42175;46.930;9.532;2023-04-09T12:17:50;3.47;;;2.50;;
56267;SDS011;42175;46.930;9.532;2023-04-09T12:20:31;3.88;;;2.70;;
56267;SDS011;42175;46.930;9.532;2023-04-09T12:23:01;3.60;;;2.65;;
56267;SDS011;42175;46.930;9.532;2023-04-09T12:25:31;2.55;;;2.05;;
56267;SDS011;42175;46.930;9.532;2023-04-09T12:27:59;5.20;;;2.30;;
56267;SDS011;42175;46.930;9.532;2023-04-09T12:30:25;4.13;;;2.90;;
56267;SDS011;42175;46.930;9.532;2023-04-09T12:32:51;3.08;;;2.50;;
56267;SDS011;42175;46.930;9.532;2023-04-09T12:35:18;3.58;;;2.67;;
56267;SDS011;42175;46.930;9.532;2023-04-09T12:37:44;3.15;;;2.35;;
56267;SDS011;42175;46.930;9.532;2023-04-09T12:40:10;2.78;;;2.30;;
56267;SDS011;42175;46.930;9.532;2023-04-09T12:42:42;3.53;;;2.97;;
56267;SDS011;42175;46.930;9.532;2023-04-09T12:45:08;3.30;;;2.70;;
56267;SDS011;42175;46.930;9.532;2023-04-09T12:47:37;3.80;;;3.00;;
56267;SDS011;42175;46.930;9.532;2023-04-09T12:50:03;4.95;;;3.33;;
56267;SDS011;42175;46.930;9.532;2023-04-09T12:52:30;4.10;;;3.30;;
56267;SDS011;42175;46.930;9.532;2023-04-09T12:54:55;3.78;;;2.83;;
56267;SDS011;42175;46.930;9.532;2023-04-09T12:57:21;5.15;;;2.95;;
56267;SDS011;42175;46.930;9.532;2023-04-09T12:59:47;3.70;;;2.40;;
56267;SDS011;42175;46.930;9.532;2023-04-09T13:02:12;4.72;;;3.25;;
56267;SDS011;42175;46.930;9.532;2023-04-09T13:04:38;3.92;;;2.78;;
56267;SDS011;42175;46.930;9.532;2023-04-09T13:07:03;3.80;;;3.25;;
56267;SDS011;42175;46.930;9.532;2023-04-09T13:09:29;4.43;;;3.20;;
56267;SDS011;42175;46.930;9.532;2023-04-09T13:11:55;5.57;;;4.55;;
56267;SDS011;42175;46.930;9.532;2023-04-09T13:14:21;6.50;;;4.15;;
56267;SDS011;42175;46.930;9.532;2023-04-09T13:16:46;3.78;;;3.35;;
56267;SDS011;42175;46.930;9.532;2023-04-09T13:19:12;4.63;;;3.53;;
56267;SDS011;42175;46.930;9.532;2023-04-09T13:21:37;7.53;;;3.65;;
56267;SDS011;42175;46.930;9.532;2023-04-09T13:24:03;5.32;;;4.13;;
56267;SDS011;42175;46.930;9.532;2023-04-09T13:26:29;5.38;;;3.70;;
56267;SDS011;42175;46.930;9.532;2023-04-09T13:28:55;4.38;;;3.60;;
56267;SDS011;42175;46.930;9.532;2023-04-09T13:31:22;5.43;;;4.43;;
56267;SDS011;42175;46.930;9.532;2023-04-09T13:33:48;4.25;;;3.85;;
56267;SDS011;42175;46.930;9.532;2023-04-09T13:36:14;4.78;;;4.15;;
56267;SDS011;42175;46.930;9.532;2023-04-09T13:38:40;4.68;;;3.80;;
56267;SDS011;42175;46.930;9.532;2023-04-09T13:41:05;4.75;;;3.90;;
56267;SDS011;42175;46.930;9.532;2023-04-09T13:43:31;5.28;;;4.25;;
56267;SDS011;42175;46.930;9.532;2023-04-09T13:45:57;7.55;;;3.28;;
56267;SDS011;42175;46.930;9.532;2023-04-09T13:48:23;3.25;;;2.22;;
56267;SDS011;42175;46.930;9.532;2023-04-09T13:50:49;4.80;;;2.28;;
56267;SDS011;42175;46.930;9.532;2023-04-09T13:53:15;2.75;;;2.10;;
56267;SDS011;42175;46.930;9.532;2023-04-09T13:55:42;3.35;;;1.88;;
56267;SDS011;42175;46.930;9.532;2023-04-09T13:58:08;2.97;;;2.30;;
56267;SDS011;42175;46.930;9.532;2023-04-09T14:00:34;14.05;;;2.08;;
56267;SDS011;42175;46.930;9.532;2023-04-09T14:03:01;5.22;;;1.80;;
56267;SDS011;42175;46.930;9.532;2023-04-09T14:05:30;3.67;;;1.75;;
56267;SDS011;42175;46.930;9.532;2023-04-09T14:07:56;2.55;;;1.88;;
56267;SDS011;42175;46.930;9.532;2023-04-09T14:10:22;3.50;;;2.35;;
56267;SDS011;42175;46.930;9.532;2023-04-09T14:12:48;4.38;;;1.52;;
56267;SDS011;42175;46.930;9.532;2023-04-09T14:15:13;2.78;;;1.70;;
56267;SDS011;42175;46.930;9.532;2023-04-09T14:17:39;3.30;;;1.80;;
56267;SDS011;42175;46.930;9.532;2023-04-09T14:20:05;2.60;;;1.65;;
56267;SDS011;42175;46.930;9.532;2023-04-09T14:22:31;4.18;;;2.05;;
56267;SDS011;42175;46.930;9.532;2023-04-09T14:24:56;3.92;;;2.00;;
56267;SDS011;42175;46.930;9.532;2023-04-09T14:27:23;2.88;;;1.70;;
56267;SDS011;42175;46.930;9.532;2023-04-09T14:29:49;5.80;;;2.47;;
56267;SDS011;42175;46.930;9.532;2023-04-09T14:32:15;6.63;;;1.75;;
56267;SDS011;42175;46.930;9.532;2023-04-09T14:34:41;2.30;;;1.80;;
56267;SDS011;42175;46.930;9.532;2023-04-09T14:37:06;4.28;;;1.92;;
56267;SDS011;42175;46.930;9.532;2023-04-09T14:39:32;3.55;;;2.22;;
56267;SDS011;42175;46.930;9.532;2023-04-09T14:41:58;3.65;;;1.90;;
56267;SDS011;42175;46.930;9.532;2023-04-09T14:44:23;2.65;;;1.85;;
56267;SDS011;42175;46.930;9.532;2023-04-09T14:46:52;2.17;;;1.70;;
56267;SDS011;42175;46.930;9.532;2023-04-09T14:49:19;2.78;;;1.58;;
56267;SDS011;42175;46.930;9.532;2023-04-09T14:51:45;9.93;;;1.85;;
56267;SDS011;42175;46.930;9.532;2023-04-09T14:54:10;1.98;;;1.63;;
56267;SDS011;42175;46.930;9.532;2023-04-09T14:56:36;3.55;;;1.90;;
56267;SDS011;42175;46.930;9.532;2023-04-09T14:59:02;7.28;;;1.98;;